CYYZ/YYZ METAR and TAF weather

Enter ICAO airport designator
Station Type Date Time Source
CYYZ METAR 2018/05/22 13:20 UTC NOAA

CYYZ 221320Z 08004KT 030V100 15SM OVC005 13/12 A2998 RMK SC8 SLP156


Station Type Date Time Source
CYYZ Decoded METAR 2018/05/22 13:20 UTC NOAA

Toronto Pearson Int'L. Ont., Canada (CYYZ) 43-40N 079-38W 173M
May 22, 2018 - 09:20 AM EDT / 2018.05.22 1320 UTC
Wind: from the E (080 degrees) at 5 MPH (4 KT) (direction variable):0
Visibility: 15 mile(s):0
Sky conditions: overcast
Temperature: 55 F (13 C)
Dew Point: 53 F (12 C)
Relative Humidity: 93%
Pressure (altimeter): 29.98 in. Hg (1015 hPa)
ob: CYYZ 221320Z 08004KT 030V100 15SM OVC005 13/12 A2998 RMK SC8 SLP156
cycle: 13

Station Type Date Time Source
CYYZ TAF 2018/05/22 13:31 UTC NOAA

TAF
AMD CYYZ 221326Z 2213/2318 05005KT 4SM -DZ -RA BR OVC005
TEMPO 2213/2215 6SM BR OVC008
FM221500 08008KT 3SM -SHRA BR OVC006
TEMPO 2215/2217 P6SM NSW OVC012
FM221700 11007KT P6SM SCT009 OVC012
FM222000 15007KT P6SM -SHRA BKN020 PROB30 2221/2223 2SM SHRA BR OVC008
FM230100 35010G20KT 6SM BR SCT008 OVC025
BECMG 2304/2306 34010KT
FM230600 34008KT P6SM FEW020
FM230900 33010KT P6SM SKC
RMK NXT FCST BY 221500Z


Example: see airport list